Time;durP1;ratioP1;P1;durP2;ratioP2;P2;SDS_P1;SDS_P2;PMS_P1;PMS_P2;Temp;Humidity;BMP_temperature;BMP_pressure;BME280_temperature;BME280_humidity;BME280_pressure;Samples;Min_cycle;Max_cycle;Signal;HPM_P1;HPM_P2
2022/02/01 00:01:02;;;;;;;;;20.75;20.75;;;;;20.24;30.12;102267.44;5077959;27;45440;-55
2022/02/01 00:03:32;;;;;;;;;19.50;18.75;;;;;20.24;29.96;102254.28;5077984;27;45520;-55
2022/02/01 00:08:50;;;;;;;;;18.75;17.00;;;;;20.22;29.92;102251.72;5077962;27;46054;-51
2022/02/01 00:38:11;;;;;;;;;17.25;14.50;;;;;20.61;30.44;102247.84;5077528;27;45463;-57
2022/02/01 00:40:38;;;;;;;;;12.75;12.00;;;;;20.67;30.58;102247.63;5077293;27;46557;-55
2022/02/01 00:43:06;;;;;;;;;17.00;15.00;;;;;20.71;30.17;102251.03;5077315;27;45233;-58
2022/02/01 00:45:32;;;;;;;;;18.00;13.75;;;;;20.75;30.53;102257.09;5077512;27;45551;-56
2022/02/01 00:47:57;;;;;;;;;15.75;14.25;;;;;20.78;29.92;102257.84;5077738;27;45479;-57
2022/02/01 00:50:23;;;;;;;;;12.75;12.00;;;;;20.80;30.51;102257.78;5077590;27;46209;-59
2022/02/01 00:52:48;;;;;;;;;18.00;13.00;;;;;20.82;30.12;102256.84;5077318;27;45418;-58
2022/02/01 00:55:14;;;;;;;;;15.00;14.75;;;;;20.84;30.13;102268.16;5077398;27;45461;-56
2022/02/01 00:57:39;;;;;;;;;13.50;11.75;;;;;20.86;30.28;102276.03;5077434;27;45377;-56
2022/02/01 01:00:09;;;;;;;;;12.25;11.25;;;;;20.88;30.27;102273.34;5077235;27;46183;-56
2022/02/01 01:02:34;;;;;;;;;10.75;9.00;;;;;20.89;30.22;102275.91;5075792;28;45481;-58
2022/02/01 01:05:00;;;;;;;;;14.00;10.25;;;;;20.88;30.21;102279.50;5077162;27;45374;-57
2022/02/01 01:07:25;;;;;;;;;12.50;12.00;;;;;20.91;29.90;102291.69;5077752;28;45524;-59
2022/02/01 01:09:52;;;;;;;;;14.50;11.00;;;;;20.92;29.61;102298.69;5077148;27;46432;-58
2022/02/01 01:12:17;;;;;;;;;15.25;13.25;;;;;20.92;29.73;102296.06;5076859;27;45460;-56
2022/02/01 01:44:37;;;;;;;;;12.00;9.25;;;;;20.89;29.38;102260.09;5076380;28;46009;-55
2022/02/01 01:53:09;;;;;;;;;10.75;8.75;;;;;20.85;29.75;102253.22;5079993;28;45825;-59
2022/02/01 01:55:32;;;;;;;;;9.50;8.25;;;;;20.84;29.60;102252.34;5080008;28;45372;-56
2022/02/01 01:57:57;;;;;;;;;12.25;10.00;;;;;20.83;29.50;102263.84;5080395;27;45212;-56
2022/02/01 02:03:00;;;;;;;;;7.00;7.00;;;;;20.83;29.34;102257.69;5079890;27;45379;-53
2022/02/01 02:05:26;;;;;;;;;10.00;7.00;;;;;20.81;29.91;102248.97;5080168;27;45409;-58
2022/02/01 02:07:51;;;;;;;;;7.25;6.00;;;;;20.81;29.71;102254.22;5080109;27;45373;-59
2022/02/01 02:10:18;;;;;;;;;8.50;7.00;;;;;20.81;29.35;102254.22;5080109;28;45603;-55
2022/02/01 02:14:15;;;;;;;;;8.50;7.00;;;;;20.81;29.54;102256.88;5079606;28;46362;-59
2022/02/01 02:15:53;;;;;;;;;12.25;7.75;;;;;20.79;29.85;102248.16;5079612;28;45810;-58
2022/02/01 02:18:19;;;;;;;;;9.25;6.00;;;;;20.79;29.39;102253.41;5079835;27;45252;-56
2022/02/01 02:20:52;;;;;;;;;9.75;8.75;;;;;20.78;29.49;102252.56;5079892;27;45478;-58
2022/02/01 02:23:18;;;;;;;;;6.25;6.25;;;;;20.76;30.04;102249.13;5079472;27;45457;-57
2022/02/01 02:25:44;;;;;;;;;6.00;4.50;;;;;20.77;29.99;102264.03;5079588;27;45829;-58
2022/02/01 02:28:13;;;;;;;;;10.50;8.25;;;;;20.76;29.69;102262.28;5079658;27;45502;-56
2022/02/01 02:30:39;;;;;;;;;9.25;9.00;;;;;20.75;29.55;102257.09;5079793;28;45557;-53
2022/02/01 02:33:08;;;;;;;;;7.50;5.75;;;;;20.74;29.56;102257.97;5079334;27;45485;-56
2022/02/01 02:35:37;;;;;;;;;5.00;5.00;;;;;20.73;29.45;102258.88;5079425;27;45834;-56
2022/02/01 02:38:08;;;;;;;;;9.50;7.25;;;;;20.72;29.74;102258.03;5079621;27;45305;-53
2022/02/01 02:40:56;;;;;;;;;7.00;6.00;;;;;20.72;29.87;102254.53;5079623;27;45465;-51
2022/02/01 02:46:02;;;;;;;;;7.50;6.00;;;;;20.67;30.10;102241.50;5079434;28;45668;-54
2022/02/01 02:48:28;;;;;;;;;8.50;8.50;;;;;20.66;30.19;102247.69;5079789;27;45309;-54
2022/02/01 02:50:54;;;;;;;;;7.25;6.00;;;;;20.66;30.15;102250.31;5079436;27;45226;-56
2022/02/01 02:53:19;;;;;;;;;6.00;6.00;;;;;20.64;30.25;102225.78;5079307;27;46425;-55
2022/02/01 02:55:45;;;;;;;;;8.00;6.00;;;;;20.63;30.39;102221.44;5079109;27;45514;-59
2022/02/01 02:58:11;;;;;;;;;6.00;4.50;;;;;20.64;30.29;102207.34;5079070;27;45288;-56
2022/02/01 03:00:37;;;;;;;;;5.75;5.00;;;;;20.61;30.21;102202.22;5078150;27;45370;-58
2022/02/01 03:03:03;;;;;;;;;6.25;5.25;;;;;20.60;29.88;102201.34;5078790;27;48601;-57
2022/02/01 03:05:28;;;;;;;;;5.75;5.00;;;;;20.60;29.92;102203.97;5079276;27;45301;-58
2022/02/01 03:07:54;;;;;;;;;5.00;5.00;;;;;20.60;30.34;102208.38;5077749;28;45343;-58
2022/02/01 03:10:19;;;;;;;;;7.75;5.75;;;;;20.59;30.45;102209.28;5079215;27;45456;-58
2022/02/01 03:13:31;;;;;;;;;4.50;4.00;;;;;20.57;30.17;102211.13;5078768;28;46440;-55
2022/02/01 03:20:40;;;;;;;;;4.00;4.00;;;;;20.57;30.10;102196.16;5079183;28;45303;-57
2022/02/01 03:23:05;;;;;;;;;7.00;5.25;;;;;20.59;30.32;102194.34;5078684;27;45454;-56
2022/02/01 03:25:30;;;;;;;;;6.00;3.50;;;;;20.61;30.24;102191.66;5078766;27;45295;-58
2022/02/01 03:27:56;;;;;;;;;5.00;4.00;;;;;20.63;30.13;102185.44;5078884;27;45261;-56
2022/02/01 03:30:22;;;;;;;;;4.50;3.25;;;;;20.66;30.71;102185.34;5078931;27;45219;-58
2022/02/01 03:32:48;;;;;;;;;4.00;3.25;;;;;20.69;30.43;102173.81;5078546;27;45522;-58
2022/02/01 03:35:13;;;;;;;;;4.00;3.00;;;;;20.73;30.46;102188.59;5078656;27;45271;-58
2022/02/01 03:37:39;;;;;;;;;3.50;3.50;;;;;20.78;30.35;102185.84;5078764;27;45371;-56
2022/02/01 03:40:05;;;;;;;;;5.00;4.00;;;;;20.83;30.19;102197.06;5078806;27;45647;-57
2022/02/01 03:42:30;;;;;;;;;4.50;4.50;;;;;20.85;30.13;102206.66;5078491;27;45334;-59
2022/02/01 03:44:56;;;;;;;;;3.75;3.75;;;;;20.89;30.78;102202.13;5078240;27;45333;-56
2022/02/01 03:47:21;;;;;;;;;7.75;3.50;;;;;20.92;30.30;102206.44;5078529;27;45358;-59
2022/02/01 03:49:47;;;;;;;;;3.00;3.00;;;;;20.97;30.50;102208.00;5078591;28;45474;-59
2022/02/01 03:52:12;;;;;;;;;4.25;4.25;;;;;20.99;30.78;102177.19;5078176;27;45490;-58
2022/02/01 03:54:39;;;;;;;;;5.25;5.00;;;;;21.04;30.48;102176.13;5078203;27;45373;-58
2022/02/01 03:57:07;;;;;;;;;4.00;4.00;;;;;21.04;30.18;102163.84;5078321;27;45286;-58
2022/02/01 03:59:33;;;;;;;;;4.00;4.00;;;;;21.07;30.29;102163.69;5078837;27;45211;-57
2022/02/01 04:02:00;;;;;;;;;5.00;5.00;;;;;21.12;30.60;102171.44;5078055;27;45250;-58
2022/02/01 04:04:28;;;;;;;;;5.50;5.50;;;;;21.12;30.19;102163.53;5077905;28;45275;-58
2022/02/01 04:06:54;;;;;;;;;5.50;5.00;;;;;21.16;30.30;102162.50;5078165;27;45437;-59
2022/02/01 04:09:21;;;;;;;;;4.00;3.25;;;;;21.17;30.50;102165.09;5077043;28;45379;-56
2022/02/01 04:11:47;;;;;;;;;6.00;4.00;;;;;21.19;30.22;102166.81;5077277;27;47257;-56
2022/02/01 04:14:16;;;;;;;;;3.00;3.00;;;;;21.19;30.58;102157.13;5078032;27;45223;-59
2022/02/01 04:16:42;;;;;;;;;4.00;4.00;;;;;21.20;30.50;102152.72;5078083;27;45334;-59
2022/02/01 04:19:07;;;;;;;;;3.75;3.75;;;;;21.22;30.42;102164.06;5078224;27;45320;-58
2022/02/01 04:21:33;;;;;;;;;3.75;3.75;;;;;21.23;30.24;102163.16;5078130;27;46832;-58
2022/02/01 04:23:58;;;;;;;;;6.00;3.50;;;;;21.24;30.34;102163.06;5077732;27;45334;-56
2022/02/01 04:26:23;;;;;;;;;3.25;2.25;;;;;21.24;30.67;102155.16;5078012;27;45393;-59
2022/02/01 04:28:49;;;;;;;;;4.50;2.50;;;;;21.24;30.34;102155.16;5078112;27;45497;-56
2022/02/01 04:31:14;;;;;;;;;2.25;2.25;;;;;21.23;30.44;102157.88;5076372;28;47259;-58
2022/02/01 04:33:39;;;;;;;;;2.00;2.00;;;;;21.24;30.33;102155.16;5077766;27;45358;-58
2022/02/01 04:36:05;;;;;;;;;3.25;2.00;;;;;21.23;30.64;102163.16;5078055;27;45214;-58
2022/02/01 04:38:30;;;;;;;;;5.00;4.00;;;;;21.23;30.29;102169.25;5076633;28;45261;-58
2022/02/01 04:40:55;;;;;;;;;5.00;3.00;;;;;21.21;30.47;102170.25;5077538;27;45227;-55
2022/02/01 04:43:21;;;;;;;;;4.00;4.00;;;;;21.21;30.76;102163.22;5077349;27;45203;-58
2022/02/01 04:45:47;;;;;;;;;5.00;3.00;;;;;21.22;30.40;102166.69;5077583;28;45243;-55
2022/02/01 04:48:12;;;;;;;;;3.50;3.00;;;;;21.22;30.42;102161.44;5077778;27;45619;-56
2022/02/01 04:50:39;;;;;;;;;2.25;2.00;;;;;21.22;30.22;102150.88;5077249;27;45229;-57
2022/02/01 04:53:05;;;;;;;;;4.50;3.25;;;;;21.23;30.27;102150.81;5077542;28;45855;-59
2022/02/01 04:55:54;;;;;;;;;4.00;3.00;;;;;21.23;29.97;102153.44;5077374;27;45293;-57
2022/02/01 04:58:16;;;;;;;;;2.25;2.25;;;;;21.21;30.49;102142.13;5077182;27;45325;-56
2022/02/01 05:00:41;;;;;;;;;4.00;4.00;;;;;21.21;30.81;102128.06;5075722;28;47215;-57
2022/02/01 05:03:06;;;;;;;;;3.25;3.25;;;;;21.19;30.83;102124.63;5077481;27;45421;-55
2022/02/01 05:05:32;;;;;;;;;4.00;3.00;;;;;21.18;30.49;102121.13;5077194;27;45375;-51
2022/02/01 05:08:00;;;;;;;;;4.75;3.00;;;;;21.15;30.47;102131.78;5077488;27;45382;-54
2022/02/01 05:10:30;;;;;;;;;3.25;2.00;;;;;21.14;30.37;102127.44;5076922;27;46137;-53
2022/02/01 05:13:05;;;;;;;;;4.25;3.00;;;;;21.13;30.67;102128.34;5076858;27;45437;-56
2022/02/01 05:15:30;;;;;;;;;3.50;3.50;;;;;21.12;30.22;102131.91;5077135;27;45487;-57
2022/02/01 05:17:57;;;;;;;;;5.25;3.25;;;;;21.09;30.42;102134.66;5077213;27;45547;-58
2022/02/01 05:20:40;;;;;;;;;3.25;2.50;;;;;21.09;30.71;102142.56;5076749;27;46391;-56
2022/02/01 05:23:05;;;;;;;;;4.25;2.00;;;;;21.08;30.89;102148.75;5076883;27;45268;-56
2022/02/01 05:25:31;;;;;;;;;2.25;2.00;;;;;21.08;30.53;102156.66;5076110;27;45345;-57
2022/02/01 05:27:59;;;;;;;;;1.25;1.25;;;;;21.06;30.98;102147.94;5077086;27;45543;-58
2022/02/01 05:30:25;;;;;;;;;3.50;3.50;;;;;21.06;30.54;102142.69;5076654;27;45458;-59
2022/02/01 05:32:51;;;;;;;;;4.00;3.50;;;;;21.05;30.63;102135.69;5076827;27;45843;-56
2022/02/01 05:35:16;;;;;;;;;2.00;0.50;;;;;21.03;30.51;102134.88;5076910;27;45322;-58
2022/02/01 05:37:41;;;;;;;;;3.00;2.00;;;;;21.01;30.49;102143.69;5075686;28;45345;-54
2022/02/01 05:40:08;;;;;;;;;2.00;2.00;;;;;21.01;31.05;102150.75;5076697;27;46163;-59
2022/02/01 05:45:09;;;;;;;;;4.25;2.00;;;;;20.99;30.90;102129.75;5076942;27;45236;-58
2022/02/01 05:47:34;;;;;;;;;3.00;2.00;;;;;20.99;30.69;102113.94;5076836;27;45549;-56
2022/02/01 05:49:59;;;;;;;;;3.00;3.00;;;;;20.96;30.83;102114.03;5076557;27;46268;-58
2022/02/01 05:52:25;;;;;;;;;3.00;2.50;;;;;20.95;31.02;102104.41;5076471;27;45412;-56
2022/02/01 05:54:50;;;;;;;;;4.00;2.00;;;;;20.94;30.86;102112.38;5076779;27;45401;-56
2022/02/01 05:57:15;;;;;;;;;2.00;2.00;;;;;20.94;31.17;102102.69;5076921;27;45393;-58
2022/02/01 05:59:41;;;;;;;;;2.00;2.00;;;;;20.92;30.78;102101.03;5076213;27;47166;-58
2022/02/01 06:02:06;;;;;;;;;3.25;2.00;;;;;20.92;31.31;102090.47;5076566;27;45417;-59
2022/02/01 06:04:32;;;;;;;;;2.00;2.00;;;;;20.91;31.15;102083.50;5076292;27;45327;-58
2022/02/01 06:06:57;;;;;;;;;1.50;1.50;;;;;20.87;30.97;102077.47;5076577;28;45623;-57
2022/02/01 06:09:23;;;;;;;;;2.00;2.00;;;;;20.87;30.89;102084.50;5076306;27;45413;-58
2022/02/01 06:11:48;;;;;;;;;1.00;1.00;;;;;20.87;30.96;102085.38;5076039;27;46482;-56
2022/02/01 06:14:13;;;;;;;;;2.25;2.25;;;;;20.83;31.23;102083.78;5076336;27;45784;-58
2022/02/01 06:16:39;;;;;;;;;4.75;1.75;;;;;20.82;30.99;102084.69;5076860;27;45613;-60
2022/02/01 06:19:04;;;;;;;;;2.50;2.25;;;;;20.82;31.67;102075.03;5076176;27;45557;-58
2022/02/01 06:21:30;;;;;;;;;2.25;2.00;;;;;20.82;31.08;102074.16;5076063;27;45252;-58
2022/02/01 06:23:55;;;;;;;;;2.50;2.00;;;;;20.81;31.60;102086.47;5074880;28;45374;-58
2022/02/01 06:26:22;;;;;;;;;3.25;1.00;;;;;20.80;31.64;102068.06;5076402;27;45301;-58
2022/02/01 06:28:48;;;;;;;;;2.00;1.00;;;;;20.79;31.64;102074.25;5076075;27;45471;-59
2022/02/01 06:31:13;;;;;;;;;2.00;1.00;;;;;20.79;31.72;102084.78;5076055;27;45237;-58
2022/02/01 06:33:38;;;;;;;;;2.00;2.00;;;;;20.77;31.69;102082.22;5076413;27;45214;-55
2022/02/01 06:36:04;;;;;;;;;2.00;2.00;;;;;20.78;31.65;102085.72;5078303;27;45224;-57
2022/02/01 06:38:29;;;;;;;;;2.25;1.00;;;;;20.76;31.33;102080.50;5079515;27;46433;-56
2022/02/01 06:40:55;;;;;;;;;1.00;1.00;;;;;20.74;31.55;102079.69;5079438;27;45311;-58
2022/02/01 06:43:20;;;;;;;;;1.00;1.00;;;;;20.74;31.25;102078.81;5079603;27;45773;-56
2022/02/01 06:45:46;;;;;;;;;4.00;2.50;;;;;20.73;31.61;102085.00;5078345;28;45406;-53
2022/02/01 06:48:11;;;;;;;;;2.50;2.50;;;;;20.72;31.45;102088.53;5079445;27;45510;-54
2022/02/01 06:50:36;;;;;;;;;3.25;2.00;;;;;20.71;31.35;102085.06;5079344;27;45306;-57
2022/02/01 06:53:03;;;;;;;;;6.25;2.25;;;;;20.69;31.48;102077.19;5079340;27;45363;-57
2022/02/01 06:55:43;;;;;;;;;2.00;2.00;;;;;20.68;31.52;102091.28;5077925;28;45468;-59
2022/02/01 06:58:13;;;;;;;;;2.25;1.50;;;;;20.66;31.46;102079.97;5078760;27;47222;-56
2022/02/01 07:00:40;;;;;;;;;3.00;1.00;;;;;20.65;31.24;102083.50;5079649;27;45322;-52
2022/02/01 07:03:05;;;;;;;;;2.00;2.00;;;;;20.48;31.47;102086.75;5079263;27;45193;-58
2022/02/01 07:05:31;;;;;;;;;3.25;2.00;;;;;20.22;31.98;102074.50;5079297;27;45561;-48
2022/02/01 07:07:56;;;;;;;;;1.50;1.50;;;;;20.04;31.88;102075.97;5079084;27;46129;-53
2022/02/01 07:10:21;;;;;;;;;4.00;2.00;;;;;19.83;32.24;102080.13;5078717;27;48511;-50
2022/02/01 07:12:47;;;;;;;;;3.00;2.25;;;;;19.62;32.51;102095.69;5078894;27;45263;-55
2022/02/01 07:15:13;;;;;;;;;4.00;2.25;;;;;19.47;33.02;102092.63;5079509;27;45498;-56
2022/02/01 07:17:45;;;;;;;;;3.25;2.00;;;;;19.35;33.07;102076.38;5078739;27;45258;-49
2022/02/01 07:20:11;;;;;;;;;3.25;2.75;;;;;19.22;33.43;102075.88;5079165;27;45810;-50
2022/02/01 07:22:37;;;;;;;;;3.00;1.25;;;;;19.11;33.35;102069.19;5078976;27;45254;-50
2022/02/01 07:25:13;;;;;;;;;8.00;3.50;;;;;19.00;33.44;102076.53;5078865;27;45261;-53
2022/02/01 07:27:40;;;;;;;;;3.00;1.25;;;;;18.87;33.93;102086.47;5078557;27;46059;-49
2022/02/01 07:30:13;;;;;;;;;4.50;2.00;;;;;18.89;33.85;102086.44;5077464;28;46191;-54
2022/02/01 07:32:39;;;;;;;;;2.25;2.25;;;;;18.95;33.98;102089.78;5078824;27;45330;-56
2022/02/01 07:35:05;;;;;;;;;1.25;1.25;;;;;19.06;34.10;102078.97;5078825;27;45254;-56
2022/02/01 07:37:31;;;;;;;;;2.25;2.00;;;;;19.17;34.04;102081.28;5077144;28;46966;-58
2022/02/01 07:39:56;;;;;;;;;3.50;1.00;;;;;19.27;33.93;102095.00;5078417;27;45328;-58
2022/02/01 07:42:22;;;;;;;;;3.00;3.00;;;;;19.35;33.75;102076.38;5078701;27;45405;-57
2022/02/01 07:44:47;;;;;;;;;3.75;2.75;;;;;19.41;33.47;102066.53;5078559;27;45578;-57
2022/02/01 07:47:20;;;;;;;;;1.50;1.50;;;;;19.50;33.74;102075.03;5077698;27;46022;-56
2022/02/01 07:49:46;;;;;;;;;2.00;2.00;;;;;19.55;33.46;102050.31;5061503;28;45864;-55
2022/02/01 07:52:11;;;;;;;;;5.50;3.00;;;;;19.59;33.52;102056.31;5078626;27;45367;-57
2022/02/01 07:54:37;;;;;;;;;3.75;1.50;;;;;19.64;33.70;102054.41;5078516;27;45509;-56
2022/02/01 07:57:02;;;;;;;;;3.00;3.00;;;;;19.68;33.08;102050.75;5077998;27;45452;-57
2022/02/01 07:59:28;;;;;;;;;2.75;2.50;;;;;19.70;33.43;102035.81;5077996;27;45310;-56
2022/02/01 08:01:53;;;;;;;;;3.00;3.00;;;;;19.74;33.25;102045.31;5078298;27;45390;-59
2022/02/01 08:04:18;;;;;;;;;2.25;1.75;;;;;19.76;33.32;102038.25;5078440;27;45638;-56
2022/02/01 08:06:44;;;;;;;;;1.25;1.25;;;;;19.80;32.91;102035.50;5060025;28;48004;-55
2022/02/01 08:09:22;;;;;;;;;5.25;4.00;;;;;19.82;33.21;102036.31;5078221;27;45531;-57
2022/02/01 08:11:47;;;;;;;;;3.25;2.00;;;;;19.85;33.19;102038.84;5078216;27;45337;-56
2022/02/01 08:17:45;;;;;;;;;2.00;2.00;;;;;19.86;33.25;102016.91;5077945;28;45372;-59
2022/02/01 08:25:00;;;;;;;;;1.75;1.75;;;;;19.91;33.09;102026.38;5078110;28;45277;-58
2022/02/01 08:27:26;;;;;;;;;2.25;2.00;;;;;19.92;33.42;102014.06;5077679;27;45474;-57
2022/02/01 08:29:52;;;;;;;;;3.75;1.75;;;;;19.92;33.11;102020.22;5077537;27;45346;-56
2022/02/01 08:32:17;;;;;;;;;1.00;1.00;;;;;19.94;33.62;102012.25;5078175;27;45231;-56
2022/02/01 08:34:42;;;;;;;;;3.75;2.50;;;;;19.95;33.49;102003.44;5077873;27;45221;-58
2022/02/01 08:37:08;;;;;;;;;1.50;1.50;;;;;19.95;33.52;102003.44;5076156;28;47110;-56
2022/02/01 08:39:33;;;;;;;;;2.00;1.00;;;;;19.96;33.05;101999.91;5077690;27;45337;-56
2022/02/01 08:41:59;;;;;;;;;3.75;2.00;;;;;19.98;33.48;102002.47;5077681;27;45173;-59
2022/02/01 08:44:28;;;;;;;;;2.00;2.00;;;;;19.98;33.27;101991.94;5076459;28;45577;-56
2022/02/01 08:46:55;;;;;;;;;3.00;1.50;;;;;19.99;33.13;101991.91;5077440;27;45351;-59
2022/02/01 08:49:20;;;;;;;;;2.75;1.00;;;;;19.99;33.47;101984.03;5077654;27;45646;-57
2022/02/01 08:51:48;;;;;;;;;2.25;1.25;;;;;20.00;33.32;101996.28;5077750;27;45305;-59
2022/02/01 08:54:20;;;;;;;;;2.00;1.00;;;;;19.99;33.49;101981.38;5077639;27;45632;-57
2022/02/01 08:59:30;;;;;;;;;2.75;1.00;;;;;20.01;33.13;101978.69;5077099;28;45315;-56
2022/02/01 09:01:55;;;;;;;;;4.50;0.75;;;;;20.02;33.53;101975.16;5077357;27;45387;-59
2022/02/01 09:04:22;;;;;;;;;0.50;0.50;;;;;20.02;33.41;101969.88;5077413;27;45587;-59
2022/02/01 09:06:48;;;;;;;;;3.25;3.25;;;;;20.01;33.13;101966.38;5077282;27;46445;-59
2022/02/01 09:09:13;;;;;;;;;1.75;1.00;;;;;20.01;33.39;101966.38;5077049;27;45341;-59
2022/02/01 09:11:39;;;;;;;;;1.50;1.50;;;;;20.04;33.21;101960.16;5076982;27;45478;-59
2022/02/01 09:14:04;;;;;;;;;3.00;3.00;;;;;20.02;33.14;101962.84;5076050;28;45309;-57
2022/02/01 09:16:29;;;;;;;;;0.75;0.75;;;;;20.02;33.54;101951.47;5076770;27;46422;-58
2022/02/01 09:18:55;;;;;;;;;2.50;1.00;;;;;20.01;33.66;101944.47;5076970;27;45449;-58
2022/02/01 09:21:20;;;;;;;;;4.00;1.00;;;;;20.01;33.62;101939.22;5075845;28;45403;-56
2022/02/01 09:23:46;;;;;;;;;1.00;1.00;;;;;20.03;33.74;101948.78;5077311;27;45326;-58
2022/02/01 09:26:11;;;;;;;;;2.00;2.00;;;;;20.02;34.06;101947.03;5076832;27;46353;-56
2022/02/01 09:28:37;;;;;;;;;3.25;2.25;;;;;20.03;34.04;101954.03;5075513;28;45323;-56
2022/02/01 09:31:03;;;;;;;;;3.00;1.75;;;;;20.04;34.01;101947.84;5076917;27;45583;-57
2022/02/01 09:33:30;;;;;;;;;4.50;1.50;;;;;20.04;34.19;101939.97;5076974;27;45359;-57
2022/02/01 09:35:56;;;;;;;;;1.00;1.00;;;;;20.04;34.45;101939.97;5075453;28;47153;-57
2022/02/01 09:38:21;;;;;;;;;2.00;1.75;;;;;20.05;34.56;101931.16;5076842;27;45429;-58
2022/02/01 09:40:48;;;;;;;;;1.00;1.00;;;;;20.05;34.12;101931.16;5076826;27;45671;-56
2022/02/01 09:43:14;;;;;;;;;1.50;0.50;;;;;20.06;34.06;101937.31;5077016;27;45633;-57
2022/02/01 09:45:40;;;;;;;;;4.00;1.75;;;;;20.06;34.51;101938.13;5075112;28;48233;-56
2022/02/01 09:48:06;;;;;;;;;2.00;2.00;;;;;20.07;34.31;101910.03;5076662;28;45417;-58
2022/02/01 09:50:32;;;;;;;;;3.00;2.25;;;;;20.07;34.73;101913.53;5076717;27;45383;-55
2022/02/01 09:52:58;;;;;;;;;2.00;2.00;;;;;20.08;34.84;101923.16;5076854;28;45564;-59
2022/02/01 09:55:23;;;;;;;;;2.00;2.00;;;;;20.10;34.83;101927.50;5076409;28;46758;-58
2022/02/01 09:57:53;;;;;;;;;0.50;0.50;;;;;20.10;34.88;101924.88;5076840;27;45411;-59
2022/02/01 10:00:22;;;;;;;;;3.75;2.50;;;;;20.10;34.87;101923.09;5076704;27;45267;-60
2022/02/01 10:02:54;;;;;;;;;3.00;1.00;;;;;20.10;34.83;101928.34;5076633;27;45334;-58
2022/02/01 10:05:20;;;;;;;;;2.25;2.25;;;;;20.11;34.54;101909.03;5076555;27;45762;-56
2022/02/01 10:07:56;;;;;;;;;1.25;1.00;;;;;20.12;34.98;101928.31;5077563;27;45472;-56
2022/02/01 10:10:27;;;;;;;;;2.00;1.00;;;;;20.12;34.83;101928.31;5078751;27;45385;-58
2022/02/01 10:13:16;;;;;;;;;1.75;1.75;;;;;20.12;34.41;101938.84;5080192;27;45161;-57
2022/02/01 10:16:17;;;;;;;;;2.75;2.00;;;;;20.12;35.02;101946.75;5079393;27;47246;-58
2022/02/01 10:18:42;;;;;;;;;2.25;2.00;;;;;20.13;34.54;101927.38;5079799;27;45346;-56
2022/02/01 10:21:10;;;;;;;;;1.50;1.00;;;;;20.12;34.76;101923.06;5079887;27;45729;-55
2022/02/01 10:23:38;;;;;;;;;1.00;1.00;;;;;20.12;34.63;101910.75;5079418;27;45635;-56
2022/02/01 10:26:07;;;;;;;;;5.75;2.00;;;;;20.13;35.03;101922.13;5079376;27;46142;-57
2022/02/01 10:29:05;;;;;;;;;1.50;1.50;;;;;20.14;34.58;101918.56;5078259;27;45796;-57
2022/02/01 10:37:03;;;;;;;;;2.00;2.00;;;;;20.08;34.91;101904.75;5079183;27;45491;-59
2022/02/01 10:39:31;;;;;;;;;2.00;2.00;;;;;20.05;34.83;101889.06;5079351;27;45402;-58
2022/02/01 10:42:02;;;;;;;;;2.00;2.00;;;;;20.03;34.86;101898.78;5078172;27;45269;-57
2022/02/01 10:44:44;;;;;;;;;3.00;1.25;;;;;20.02;35.00;101912.84;5079255;28;45386;-58
2022/02/01 10:47:15;;;;;;;;;2.00;2.00;;;;;20.01;35.01;101902.38;5079503;27;46613;-56
2022/02/01 10:49:41;;;;;;;;;2.25;2.25;;;;;19.97;34.82;101891.09;5079513;27;45334;-58
2022/02/01 10:52:13;;;;;;;;;2.00;1.00;;;;;19.98;35.16;101906.00;5079432;27;45340;-57
2022/02/01 10:54:40;;;;;;;;;1.00;1.00;;;;;19.96;35.05;101901.66;5079485;27;45420;-54
2022/02/01 10:57:10;;;;;;;;;0.75;0.75;;;;;19.95;34.97;101892.94;5079000;27;46956;-58
2022/02/01 10:59:36;;;;;;;;;2.25;1.00;;;;;19.95;34.94;101882.41;5079004;27;45379;-58
2022/02/01 11:02:03;;;;;;;;;2.50;2.50;;;;;19.97;34.87;101870.06;5079182;27;45370;-57
2022/02/01 11:04:31;;;;;;;;;7.00;2.00;;;;;19.98;35.13;101869.16;5079311;27;45419;-58
2022/02/01 11:06:58;;;;;;;;;2.50;1.00;;;;;19.98;34.93;101874.41;5078891;27;45366;-55
2022/02/01 11:09:29;;;;;;;;;4.00;2.00;;;;;20.00;35.28;101863.81;5078111;27;45717;-55
2022/02/01 11:12:02;;;;;;;;;1.00;1.00;;;;;20.00;34.94;101854.16;5078061;28;45624;-56
2022/02/01 11:14:28;;;;;;;;;3.00;2.00;;;;;19.98;34.95;101845.47;5079242;27;45359;-55
2022/02/01 11:17:07;;;;;;;;;2.00;0.50;;;;;20.00;34.87;101841.00;5077815;27;46229;-56
2022/02/01 11:19:44;;;;;;;;;1.75;1.75;;;;;19.98;34.86;101845.47;5078805;27;45826;-56
2022/02/01 11:22:21;;;;;;;;;1.00;1.00;;;;;20.00;34.92;101841.00;5076528;27;45403;-57
2022/02/01 11:24:56;;;;;;;;;0.00;0.00;;;;;20.01;34.58;101836.59;5079169;27;45594;-56
2022/02/01 11:27:44;;;;;;;;;1.50;0.50;;;;;20.01;34.68;101841.84;5078912;27;46193;-56
2022/02/01 11:30:11;;;;;;;;;2.00;2.00;;;;;20.00;35.10;101843.66;5078584;27;45366;-58
2022/02/01 11:32:48;;;;;;;;;2.25;1.00;;;;;20.00;34.65;101838.38;5078797;27;45381;-58
2022/02/01 11:35:20;;;;;;;;;1.75;1.75;;;;;20.00;35.16;101841.00;5094669;27;45430;-58
2022/02/01 11:38:20;;;;;;;;;1.00;1.00;;;;;20.00;34.94;101840.13;5078342;27;46496;-60
2022/02/01 11:40:57;;;;;;;;;1.00;1.00;;;;;20.00;34.96;101833.13;5067613;27;45464;-59
2022/02/01 11:43:25;;;;;;;;;5.50;3.75;;;;;19.99;35.21;101830.53;5078970;27;45428;-59
2022/02/01 11:46:04;;;;;;;;;1.50;1.00;;;;;19.99;34.93;101822.63;5077413;27;45228;-59
2022/02/01 11:48:32;;;;;;;;;2.25;1.00;;;;;19.99;35.10;101828.75;5078277;27;46478;-59
2022/02/01 11:50:59;;;;;;;;;3.00;1.00;;;;;19.99;34.92;101810.34;5078617;27;45787;-59
2022/02/01 11:53:29;;;;;;;;;3.00;2.00;;;;;19.99;35.04;101822.63;5078887;28;45360;-56
2022/02/01 11:55:57;;;;;;;;;3.50;2.00;;;;;19.97;34.71;101820.06;5078913;27;45176;-59
2022/02/01 11:58:37;;;;;;;;;1.50;1.00;;;;;19.98;34.67;101813.00;5078368;27;45537;-57
2022/02/01 12:01:06;;;;;;;;;2.50;2.00;;;;;19.97;35.00;101817.44;5078067;27;45350;-59
2022/02/01 12:03:39;;;;;;;;;2.50;1.00;;;;;19.95;35.24;101816.63;5078163;27;45313;-57
2022/02/01 12:06:10;;;;;;;;;2.50;1.25;;;;;19.97;35.01;101821.81;5078292;27;45334;-57
2022/02/01 12:08:41;;;;;;;;;2.00;2.00;;;;;19.95;34.85;101819.25;5077925;27;46341;-54
2022/02/01 12:11:08;;;;;;;;;2.75;1.00;;;;;19.96;35.23;101826.25;5077940;28;45407;-58
2022/02/01 12:13:37;;;;;;;;;3.00;1.00;;;;;19.96;35.35;101822.72;5078304;27;45410;-56
2022/02/01 12:16:05;;;;;;;;;1.50;1.50;;;;;19.95;35.45;101814.00;5078319;27;45328;-57
2022/02/01 12:18:31;;;;;;;;;2.00;2.00;;;;;19.97;35.41;101808.66;5076605;28;48429;-56
2022/02/01 12:21:20;;;;;;;;;2.25;1.00;;;;;19.98;35.69;101815.66;5078057;27;45293;-51
2022/02/01 12:23:50;;;;;;;;;2.00;2.00;;;;;19.98;35.44;101811.25;5077959;27;45209;-56
2022/02/01 12:26:34;;;;;;;;;1.00;1.00;;;;;20.00;35.81;101800.66;5078112;27;45319;-56
2022/02/01 12:29:03;;;;;;;;;0.00;0.00;;;;;19.97;35.54;101796.38;5077805;27;47399;-55
2022/02/01 12:31:30;;;;;;;;;2.00;1.25;;;;;19.98;35.91;101794.59;5077967;27;45327;-56
2022/02/01 12:33:58;;;;;;;;;2.75;1.00;;;;;19.97;35.98;101777.97;5077504;27;45300;-57
2022/02/01 12:36:28;;;;;;;;;1.75;1.00;;;;;19.95;35.96;101768.41;5077885;28;45374;-55
2022/02/01 12:39:06;;;;;;;;;5.00;3.25;;;;;19.97;35.74;101775.34;5077400;27;46298;-56
2022/02/01 12:41:42;;;;;;;;;1.00;1.00;;;;;19.96;35.63;101768.34;5077490;28;45335;-56
2022/02/01 12:46:49;;;;;;;;;6.00;2.75;;;;;19.97;36.07;101777.97;5076886;27;45414;-57
2022/02/01 12:49:15;;;;;;;;;2.00;2.00;;;;;19.95;35.59;101760.53;5075850;27;47324;-56
2022/02/01 12:51:45;;;;;;;;;5.00;2.00;;;;;19.97;35.89;101759.53;5077444;27;45656;-57
2022/02/01 12:54:21;;;;;;;;;3.50;2.00;;;;;19.96;35.49;101755.19;5077436;27;45376;-57
2022/02/01 12:56:48;;;;;;;;;2.50;2.50;;;;;19.97;35.44;101743.75;5077482;27;45307;-59
2022/02/01 12:59:13;;;;;;;;;3.00;2.00;;;;;19.96;35.98;101736.78;5077133;27;46585;-57
2022/02/01 13:01:39;;;;;;;;;3.00;2.00;;;;;19.97;35.96;101742.88;5077171;27;45283;-59
2022/02/01 13:04:06;;;;;;;;;2.00;2.00;;;;;19.96;35.95;101731.50;5077173;27;45445;-56
2022/02/01 13:06:34;;;;;;;;;1.75;1.75;;;;;19.95;36.08;101728.97;5077409;28;45264;-57